Time;durP1;ratioP1;P1;durP2;ratioP2;P2;SDS_P1;SDS_P2;PMS_P1;PMS_P2;Temp;Humidity;BMP_temperature;BMP_pressure;BME280_temperature;BME280_humidity;BME280_pressure;Samples;Min_cycle;Max_cycle;Signal;HPM_P1;HPM_P2
2022/06/21 00:02:21;;;;;;;8.88;2.88;;;12.20;99.90;;;;;;5041204;28;20132;-67
2022/06/21 00:04:47;;;;;;;6.95;2.67;;;12.20;99.90;;;;;;5051784;28;20059;-67
2022/06/21 00:07:20;;;;;;;9.07;2.70;;;12.30;99.90;;;;;;5062841;28;20505;-69
2022/06/21 00:09:46;;;;;;;6.50;2.60;;;12.30;99.90;;;;;;5067790;28;20426;-68
2022/06/21 00:12:13;;;;;;;10.90;2.90;;;12.20;99.90;;;;;;5018980;28;20102;-69
2022/06/21 00:14:40;;;;;;;8.90;2.97;;;12.30;99.90;;;;;;5053433;28;20040;-68
2022/06/21 00:17:08;;;;;;;11.32;2.97;;;12.40;99.90;;;;;;5067955;28;20397;-68
2022/06/21 00:19:37;;;;;;;8.02;3.00;;;12.50;99.90;;;;;;5052009;28;20124;-68
2022/06/21 00:22:04;;;;;;;8.93;3.15;;;12.60;99.90;;;;;;5073186;28;20469;-68
2022/06/21 00:24:30;;;;;;;8.13;2.80;;;12.60;99.90;;;;;;5074159;28;20063;-68
2022/06/21 00:26:56;;;;;;;10.30;2.65;;;12.70;99.90;;;;;;5072514;28;20469;-69
2022/06/21 00:29:25;;;;;;;8.68;3.00;;;12.80;99.90;;;;;;5057150;28;20048;-68
2022/06/21 00:31:53;;;;;;;13.77;2.83;;;12.80;99.90;;;;;;5053643;28;20062;-68
2022/06/21 00:34:21;;;;;;;9.30;2.90;;;12.90;99.90;;;;;;5046502;28;20132;-68
2022/06/21 00:36:49;;;;;;;6.82;3.08;;;12.90;99.90;;;;;;5071572;28;20048;-69
2022/06/21 00:39:18;;;;;;;11.20;2.60;;;13.00;99.90;;;;;;5039174;28;20131;-70
2022/06/21 00:41:52;;;;;;;12.32;3.05;;;13.00;99.90;;;;;;5058283;28;20040;-68
2022/06/21 00:44:25;;;;;;;10.52;2.85;;;13.00;99.90;;;;;;5077248;28;20028;-68
2022/06/21 00:47:02;;;;;;;8.70;2.60;;;13.00;99.90;;;;;;5069352;28;20050;-68
2022/06/21 00:49:35;;;;;;;6.90;2.67;;;12.90;99.90;;;;;;5066467;28;20051;-72
2022/06/21 00:52:14;;;;;;;7.53;2.55;;;12.90;99.90;;;;;;5090926;28;20047;-68
2022/06/21 00:55:02;;;;;;;11.10;2.67;;;12.80;99.90;;;;;;5058135;28;20048;-68
2022/06/21 00:57:39;;;;;;;9.63;2.78;;;12.70;99.90;;;;;;5073517;28;20044;-68
2022/06/21 01:00:41;;;;;;;8.43;2.75;;;12.60;99.90;;;;;;5049801;28;20055;-68
2022/06/21 01:03:20;;;;;;;9.07;2.85;;;12.60;99.90;;;;;;5027876;28;20056;-71
2022/06/21 01:05:46;;;;;;;8.20;2.60;;;12.50;99.90;;;;;;5054149;28;20482;-69
2022/06/21 01:08:19;;;;;;;7.00;2.60;;;12.40;99.90;;;;;;5050888;28;20047;-68
2022/06/21 01:10:50;;;;;;;8.48;2.58;;;12.40;99.90;;;;;;5071524;28;20055;-67
2022/06/21 01:13:20;;;;;;;10.90;3.15;;;12.40;99.90;;;;;;5072234;28;20044;-68
2022/06/21 01:15:49;;;;;;;11.60;2.80;;;12.40;99.90;;;;;;5072789;28;20048;-67
2022/06/21 01:18:19;;;;;;;10.15;3.15;;;12.30;99.90;;;;;;5070075;28;20044;-69
2022/06/21 01:20:49;;;;;;;7.18;2.90;;;12.30;99.90;;;;;;5048276;28;20052;-67
2022/06/21 01:23:39;;;;;;;8.05;2.97;;;12.20;99.90;;;;;;5066526;28;20044;-69
2022/06/21 01:26:35;;;;;;;8.27;3.15;;;12.20;99.90;;;;;;5072000;28;20127;-67
2022/06/21 01:29:03;;;;;;;9.98;2.90;;;12.20;99.90;;;;;;5071093;28;20048;-67
2022/06/21 01:31:30;;;;;;;11.73;3.17;;;12.10;99.90;;;;;;5071159;28;20049;-73
2022/06/21 01:33:56;;;;;;;10.90;3.40;;;12.10;99.90;;;;;;5061741;28;20036;-68
2022/06/21 01:36:35;;;;;;;7.63;3.30;;;12.10;99.90;;;;;;5055137;28;20373;-67
2022/06/21 01:39:05;;;;;;;8.20;3.30;;;12.10;99.90;;;;;;5066822;28;20349;-68
2022/06/21 01:41:42;;;;;;;9.50;3.03;;;12.10;99.90;;;;;;5071803;28;20190;-67
2022/06/21 01:44:34;;;;;;;9.40;3.10;;;12.10;99.90;;;;;;5070234;28;20388;-68
2022/06/21 01:47:04;;;;;;;12.45;3.38;;;11.90;99.90;;;;;;5046684;28;20044;-70
2022/06/21 01:49:33;;;;;;;8.40;3.28;;;11.90;99.90;;;;;;5064991;28;20131;-71
2022/06/21 01:52:04;;;;;;;9.88;3.20;;;11.90;99.90;;;;;;5064978;28;20044;-72
2022/06/21 01:54:38;;;;;;;6.40;2.85;;;11.90;99.90;;;;;;5071317;28;20185;-68
2022/06/21 01:57:09;;;;;;;10.88;3.30;;;11.90;99.90;;;;;;5044106;28;20461;-68
2022/06/21 01:59:41;;;;;;;8.77;3.30;;;11.80;99.90;;;;;;5071694;28;20051;-67
2022/06/21 02:02:09;;;;;;;;;;;11.80;99.90;;;;;;5071768;28;20058;-67
2022/06/21 02:04:41;;;;;;;7.75;3.08;;;11.80;99.90;;;;;;5066710;28;19939;-67
2022/06/21 02:07:12;;;;;;;5.30;2.67;;;11.70;99.90;;;;;;5064228;28;20045;-67
2022/06/21 02:09:46;;;;;;;9.20;3.13;;;11.60;99.90;;;;;;5041240;28;20037;-67
2022/06/21 02:12:14;;;;;;;9.63;3.25;;;11.60;99.90;;;;;;5046753;28;20034;-67
2022/06/21 02:14:49;;;;;;;8.50;3.63;;;11.50;99.90;;;;;;5071017;28;20047;-67
2022/06/21 02:17:20;;;;;;;8.35;3.00;;;11.50;99.90;;;;;;5071414;28;20040;-67
2022/06/21 02:20:07;;;;;;;8.90;3.72;;;11.40;99.90;;;;;;5070978;28;20040;-68
2022/06/21 02:22:34;;;;;;;9.20;3.63;;;11.40;99.90;;;;;;5070377;28;20584;-68
2022/06/21 02:25:02;;;;;;;11.30;3.50;;;11.30;99.90;;;;;;5071544;28;20089;-68
2022/06/21 02:27:32;;;;;;;7.40;3.10;;;11.30;99.90;;;;;;5071552;28;20068;-67
2022/06/21 02:30:04;;;;;;;5.65;2.70;;;11.20;99.90;;;;;;5069859;28;20033;-67
2022/06/21 02:32:40;;;;;;;7.10;3.35;;;11.20;99.90;;;;;;5065086;28;20101;-72
2022/06/21 02:35:35;;;;;;;9.98;3.50;;;11.10;99.90;;;;;;5065438;28;20182;-71
2022/06/21 02:38:05;;;;;;;9.65;3.30;;;11.10;99.90;;;;;;5050185;28;20048;-67
2022/06/21 02:40:37;;;;;;;6.80;3.03;;;11.10;99.90;;;;;;5059161;28;20388;-68
2022/06/21 02:43:06;;;;;;;;;;;11.10;99.90;;;;;;5071037;28;20362;-68
2022/06/21 02:45:48;;;;;;;8.27;3.78;;;11.10;99.90;;;;;;5070097;28;19916;-68
2022/06/21 02:48:25;;;;;;;6.60;3.15;;;11.00;99.90;;;;;;5066989;28;20465;-67
2022/06/21 02:50:56;;;;;;;5.07;3.17;;;10.90;99.90;;;;;;5066531;28;20067;-67
2022/06/21 02:53:28;;;;;;;9.98;3.75;;;10.70;99.90;;;;;;5053996;28;20087;-67
2022/06/21 02:56:00;;;;;;;10.15;3.72;;;10.70;99.90;;;;;;5069568;28;20533;-68
2022/06/21 02:58:48;;;;;;;9.00;3.30;;;10.60;99.90;;;;;;5070071;28;20132;-67
2022/06/21 03:01:24;;;;;;;7.85;3.50;;;10.50;99.90;;;;;;5052005;28;20071;-68
2022/06/21 03:03:51;;;;;;;6.85;3.85;;;10.50;99.90;;;;;;5053209;28;20725;-67
2022/06/21 03:06:18;;;;;;;9.68;4.03;;;10.50;99.90;;;;;;5046729;28;20052;-67
2022/06/21 03:09:01;;;;;;;10.60;3.58;;;10.40;99.90;;;;;;5048396;28;20063;-68
2022/06/21 03:11:31;;;;;;;5.53;2.90;;;10.40;99.90;;;;;;5063075;28;20045;-67
2022/06/21 03:14:03;;;;;;;6.55;3.15;;;10.30;99.90;;;;;;5067803;28;20044;-67
2022/06/21 03:16:30;;;;;;;9.50;3.50;;;10.20;99.90;;;;;;5070579;28;20570;-70
2022/06/21 03:19:00;;;;;;;7.20;3.30;;;10.10;99.90;;;;;;5069742;28;20119;-67
2022/06/21 03:21:32;;;;;;;12.95;3.97;;;10.10;99.90;;;;;;5069786;28;20500;-67
2022/06/21 03:24:01;;;;;;;6.15;3.60;;;10.00;99.90;;;;;;5070507;28;20556;-67
2022/06/21 03:26:28;;;;;;;11.10;3.90;;;9.90;99.90;;;;;;5053780;28;20040;-68
2022/06/21 03:28:55;;;;;;;9.70;4.20;;;9.90;99.90;;;;;;5053515;28;20473;-67
2022/06/21 03:31:33;;;;;;;7.97;4.18;;;9.90;99.90;;;;;;5040556;28;20040;-67
2022/06/21 03:34:13;;;;;;;10.73;4.25;;;9.90;99.90;;;;;;5038330;28;20075;-67
2022/06/21 03:36:40;;;;;;;9.68;3.95;;;10.00;99.90;;;;;;5050831;28;20080;-67
2022/06/21 03:42:16;;;;;;;23.30;4.20;;;9.90;99.90;;;;;;5059040;28;20052;-67
2022/06/21 03:44:54;;;;;;;7.85;3.95;;;9.80;99.90;;;;;;5044667;28;20079;-68
2022/06/21 03:47:27;;;;;;;9.05;4.40;;;9.80;99.90;;;;;;5049063;28;20048;-69
2022/06/21 03:50:20;;;;;;;9.20;4.35;;;9.80;99.90;;;;;;5069375;28;20392;-68
2022/06/21 03:52:57;;;;;;;8.05;3.55;;;9.80;99.90;;;;;;5071472;28;20067;-67
2022/06/21 03:55:42;;;;;;;6.22;3.25;;;9.80;99.90;;;;;;5074753;28;20083;-68
2022/06/21 03:58:22;;;;;;;4.15;3.33;;;9.80;99.90;;;;;;5073574;28;20052;-68
2022/06/21 04:00:52;;;;;;;7.90;4.00;;;9.80;99.90;;;;;;5053132;28;20056;-67
2022/06/21 04:03:31;;;;;;;6.57;4.50;;;9.80;99.90;;;;;;5073220;28;20390;-67
2022/06/21 04:06:00;;;;;;;8.70;4.75;;;9.80;99.90;;;;;;5054136;28;20084;-68
2022/06/21 04:08:47;;;;;;;5.50;3.38;;;9.90;99.90;;;;;;5048693;28;20056;-68
2022/06/21 04:12:01;;;;;;;9.50;4.88;;;9.90;99.90;;;;;;5061534;28;20048;-70
2022/06/21 04:14:39;;;;;;;13.68;6.55;;;9.90;99.90;;;;;;5047165;28;20046;-70
2022/06/21 04:17:25;;;;;;;13.43;5.82;;;10.00;99.90;;;;;;5071669;28;20044;-67
2022/06/21 04:19:53;;;;;;;11.13;6.35;;;10.10;99.90;;;;;;5072852;28;20067;-67
2022/06/21 04:22:35;;;;;;;11.20;6.63;;;10.20;99.90;;;;;;5043733;28;20048;-68
2022/06/21 04:25:05;;;;;;;12.75;7.10;;;10.30;99.90;;;;;;5044000;28;20047;-67
2022/06/21 04:27:40;;;;;;;13.48;6.90;;;10.30;99.90;;;;;;5071815;28;20107;-67
2022/06/21 04:30:17;;;;;;;12.77;6.70;;;10.30;99.90;;;;;;5074118;28;20469;-67
2022/06/21 04:32:48;;;;;;;14.45;7.25;;;10.40;99.90;;;;;;5073471;28;20452;-68
2022/06/21 04:35:22;;;;;;;10.00;5.75;;;10.50;99.90;;;;;;5057001;28;20277;-67
2022/06/21 04:38:10;;;;;;;11.75;6.00;;;10.50;99.90;;;;;;5071031;28;20055;-67
2022/06/21 04:40:48;;;;;;;15.60;7.63;;;10.50;99.90;;;;;;5061787;28;20092;-68
2022/06/21 04:43:37;;;;;;;12.68;6.95;;;10.60;99.90;;;;;;5073456;28;20434;-68
2022/06/21 04:46:17;;;;;;;14.85;7.00;;;10.80;99.90;;;;;;5037320;28;20088;-68
2022/06/21 04:49:16;;;;;;;16.40;7.78;;;10.90;99.90;;;;;;5072121;28;20503;-68
2022/06/21 04:51:53;;;;;;;13.05;6.85;;;11.00;99.90;;;;;;5072879;28;20082;-67
2022/06/21 04:54:31;;;;;;;13.35;7.50;;;11.20;99.90;;;;;;5069312;28;20094;-68
2022/06/21 04:57:19;;;;;;;13.35;6.40;;;11.20;99.90;;;;;;5072501;28;20041;-67
2022/06/21 04:59:53;;;;;;;14.95;7.68;;;11.30;99.90;;;;;;5068348;28;20044;-68
2022/06/21 05:02:27;;;;;;;11.90;7.20;;;11.40;99.90;;;;;;5036373;28;20152;-68
2022/06/21 05:04:58;;;;;;;13.68;6.82;;;11.50;99.90;;;;;;5061242;28;20049;-69
2022/06/21 05:07:29;;;;;;;13.35;7.55;;;11.60;99.90;;;;;;5060460;28;20064;-68
2022/06/21 05:09:57;;;;;;;12.37;7.53;;;11.70;99.90;;;;;;5058906;28;20042;-67
2022/06/21 05:12:34;;;;;;;17.33;8.05;;;11.90;99.90;;;;;;5053245;28;20482;-69
2022/06/21 05:15:17;;;;;;;12.63;7.63;;;12.10;99.90;;;;;;5036467;28;20033;-71
2022/06/21 05:17:48;;;;;;;13.95;7.65;;;12.20;99.90;;;;;;5054770;28;20048;-67
2022/06/21 05:20:25;;;;;;;13.07;7.13;;;12.50;99.90;;;;;;5057724;28;20045;-68
2022/06/21 05:22:54;;;;;;;12.38;7.82;;;12.60;99.90;;;;;;5053133;28;20049;-68
2022/06/21 05:25:30;;;;;;;14.02;8.20;;;12.70;99.90;;;;;;5059445;28;20508;-67
2022/06/21 05:28:18;;;;;;;13.10;7.78;;;12.90;99.90;;;;;;5036629;28;20098;-68
2022/06/21 05:30:54;;;;;;;10.40;6.90;;;13.00;99.90;;;;;;5036335;28;20048;-68
2022/06/21 05:33:35;;;;;;;12.95;7.20;;;13.20;99.90;;;;;;5043569;28;20080;-68
2022/06/21 05:36:11;;;;;;;13.95;6.80;;;13.30;99.90;;;;;;5052124;28;20041;-67
2022/06/21 05:38:50;;;;;;;13.15;7.55;;;13.30;99.90;;;;;;5034098;28;20048;-70
2022/06/21 05:41:32;;;;;;;9.50;7.03;;;13.40;99.90;;;;;;5056358;28;20076;-68
2022/06/21 05:44:44;;;;;;;11.85;7.13;;;13.50;99.90;;;;;;5065921;28;20042;-68
2022/06/21 05:47:34;;;;;;;12.90;6.95;;;13.60;99.90;;;;;;5044218;28;20154;-68
2022/06/21 05:50:03;;;;;;;11.75;6.50;;;13.80;99.90;;;;;;5052461;28;20056;-72
2022/06/21 05:52:37;;;;;;;16.85;7.07;;;13.90;99.90;;;;;;5052176;28;20404;-71
2022/06/21 05:55:37;;;;;;;9.57;6.03;;;14.10;99.90;;;;;;5039906;28;20041;-68
2022/06/21 05:58:13;;;;;;;11.05;5.10;;;14.30;99.90;;;;;;5059050;28;20098;-67
2022/06/21 06:01:18;;;;;;;10.30;4.28;;;14.50;99.90;;;;;;5072005;28;20048;-69
2022/06/21 06:04:10;;;;;;;8.27;3.30;;;14.80;99.90;;;;;;5029289;28;20057;-69
2022/06/21 06:06:41;;;;;;;7.82;3.53;;;15.00;99.90;;;;;;5032192;28;20053;-68
2022/06/21 06:09:14;;;;;;;7.63;2.70;;;15.30;99.90;;;;;;5055219;28;20040;-68
2022/06/21 06:11:59;;;;;;;7.95;2.38;;;15.50;99.90;;;;;;5044696;28;20394;-69
2022/06/21 06:14:59;;;;;;;8.88;3.00;;;15.50;99.90;;;;;;5050986;28;20041;-68
2022/06/21 06:17:41;;;;;;;7.95;3.42;;;15.40;99.90;;;;;;5049530;28;20520;-68
2022/06/21 06:20:26;;;;;;;8.25;3.00;;;15.30;99.90;;;;;;5035084;28;20048;-68
2022/06/21 06:23:21;;;;;;;6.00;3.00;;;15.30;99.90;;;;;;5051906;28;20098;-71
2022/06/21 06:26:13;;;;;;;8.95;2.83;;;15.40;99.90;;;;;;5034183;28;20052;-69
2022/06/21 06:28:48;;;;;;;8.63;2.90;;;15.40;99.90;;;;;;5048665;28;20131;-68
2022/06/21 06:31:26;;;;;;;6.50;2.95;;;15.60;99.90;;;;;;5051003;28;20045;-68
2022/06/21 06:34:21;;;;;;;7.03;2.88;;;15.60;99.90;;;;;;5051516;28;20044;-69
2022/06/21 06:36:52;;;;;;;6.80;3.03;;;15.60;99.90;;;;;;5051075;28;20045;-67
2022/06/21 06:39:31;;;;;;;7.50;2.50;;;15.50;99.90;;;;;;5034753;28;20045;-68
2022/06/21 06:42:08;;;;;;;9.20;2.90;;;15.40;99.90;;;;;;5046757;28;20470;-68
2022/06/21 06:44:41;;;;;;;6.63;2.78;;;15.50;99.90;;;;;;5051300;28;20052;-68
2022/06/21 06:47:14;;;;;;;5.28;2.50;;;15.50;99.90;;;;;;5048707;28;20049;-68
2022/06/21 06:49:55;;;;;;;5.20;2.47;;;15.60;99.90;;;;;;5050727;28;20086;-68
2022/06/21 06:52:48;;;;;;;6.47;3.13;;;15.70;99.90;;;;;;5051251;28;20126;-68
2022/06/21 06:55:55;;;;;;;4.72;2.30;;;15.80;99.90;;;;;;5043935;28;20295;-68
2022/06/21 06:58:57;;;;;;;7.03;2.75;;;15.80;99.90;;;;;;5055529;28;20486;-68
2022/06/21 07:01:39;;;;;;;4.72;2.50;;;16.00;99.90;;;;;;5028622;28;20045;-69
2022/06/21 07:04:09;;;;;;;6.25;2.45;;;16.20;99.90;;;;;;5034202;28;20076;-69
2022/06/21 07:06:42;;;;;;;9.32;2.75;;;16.40;99.90;;;;;;5033997;28;20052;-67
2022/06/21 07:09:20;;;;;;;10.45;2.67;;;16.50;99.90;;;;;;5033329;28;20440;-68
2022/06/21 07:12:15;;;;;;;5.82;2.75;;;16.50;99.90;;;;;;5026731;28;20053;-67
2022/06/21 07:14:42;;;;;;;6.60;2.33;;;16.70;99.90;;;;;;5050763;28;20052;-69
2022/06/21 07:17:17;;;;;;;5.30;2.60;;;16.90;99.90;;;;;;5049891;28;20044;-67
2022/06/21 07:19:43;;;;;;;6.93;2.80;;;17.10;99.90;;;;;;5049790;28;20055;-67
2022/06/21 07:22:28;;;;;;;6.65;2.70;;;17.30;99.90;;;;;;5049310;28;20420;-67
2022/06/21 07:25:20;;;;;;;6.03;2.65;;;17.30;99.90;;;;;;5050546;28;20115;-68
2022/06/21 07:27:51;;;;;;;7.43;2.83;;;17.30;99.90;;;;;;5048207;28;20056;-68
2022/06/21 07:30:17;;;;;;;5.85;2.58;;;17.30;99.90;;;;;;5032111;28;20055;-67
2022/06/21 07:33:07;;;;;;;4.32;2.35;;;17.00;99.90;;;;;;5047398;28;20767;-68
2022/06/21 07:35:42;;;;;;;7.93;2.70;;;16.90;99.90;;;;;;5049153;28;20127;-68
2022/06/21 07:38:31;;;;;;;6.00;2.20;;;16.70;99.90;;;;;;5050416;28;20045;-68
2022/06/21 07:41:06;;;;;;;3.78;2.22;;;16.70;99.90;;;;;;5049415;28;20045;-67
2022/06/21 07:43:39;;;;;;;4.18;2.20;;;17.00;99.90;;;;;;5050357;28;20067;-68
2022/06/21 07:46:07;;;;;;;5.65;2.22;;;17.10;99.90;;;;;;5047880;28;20424;-67
2022/06/21 07:48:54;;;;;;;6.57;2.22;;;17.30;99.90;;;;;;5047052;28;20040;-68
2022/06/21 07:51:26;;;;;;;7.07;2.40;;;17.50;99.90;;;;;;5032113;28;20049;-72
2022/06/21 07:54:07;;;;;;;6.72;2.20;;;17.80;99.90;;;;;;5027752;28;20045;-71
2022/06/21 07:56:48;;;;;;;4.13;2.03;;;18.10;99.90;;;;;;5043413;28;20139;-71
2022/06/21 07:59:16;;;;;;;;;;;18.10;99.90;;;;;;5045114;28;20138;-71
2022/06/21 08:07:35;;;;;;;5.78;2.15;;;17.10;99.90;;;;;;5052979;28;20055;-70
2022/06/21 08:10:21;;;;;;;5.82;1.70;;;17.00;99.90;;;;;;5050211;28;20043;-72
2022/06/21 08:12:48;;;;;;;3.95;2.00;;;17.20;99.90;;;;;;5060174;28;20049;-72
2022/06/21 08:15:15;;;;;;;5.45;2.05;;;17.50;99.90;;;;;;5053295;28;20048;-72
2022/06/21 08:18:00;;;;;;;7.05;2.03;;;17.70;99.90;;;;;;5052170;28;20527;-71
2022/06/21 08:20:57;;;;;;;4.28;2.00;;;18.00;99.90;;;;;;5043991;28;20385;-70
2022/06/21 08:23:43;;;;;;;3.70;2.10;;;18.50;99.90;;;;;;5048420;28;20036;-73
2022/06/21 08:26:15;;;;;;;4.90;2.80;;;18.60;99.90;;;;;;5048435;28;20040;-72
2022/06/21 08:28:54;;;;;;;5.65;2.33;;;18.70;99.90;;;;;;5047123;28;20359;-71
2022/06/21 08:31:34;;;;;;;4.88;2.30;;;19.00;99.90;;;;;;5045709;28;20460;-75
2022/06/21 08:34:30;;;;;;;5.70;2.40;;;19.20;99.90;;;;;;5058030;28;20390;-71
2022/06/21 08:37:00;;;;;;;4.82;2.45;;;19.60;99.90;;;;;;5075503;28;20165;-69
2022/06/21 08:39:45;;;;;;;3.63;2.47;;;19.90;99.90;;;;;;5052760;28;20120;-70
2022/06/21 11:02:42;;;;;;;3.17;1.60;;;23.80;84.20;;;;;;5068030;28;20067;-69
2022/06/21 11:05:34;;;;;;;2.63;1.70;;;23.20;81.50;;;;;;5010871;28;20049;-69
2022/06/21 11:08:21;;;;;;;4.53;1.75;;;22.90;82.90;;;;;;5033401;28;20504;-71
2022/06/21 11:11:05;;;;;;;2.00;1.50;;;22.90;86.30;;;;;;5030825;28;20048;-70
2022/06/21 11:13:38;;;;;;;4.38;1.98;;;22.60;81.80;;;;;;5027572;28;20110;-69
2022/06/21 11:16:31;;;;;;;4.75;2.05;;;22.40;84.70;;;;;;5050619;28;20123;-71
2022/06/21 11:19:18;;;;;;;7.00;2.40;;;22.30;82.50;;;;;;5050697;28;20045;-69
2022/06/21 11:22:11;;;;;;;5.78;2.10;;;22.60;85.40;;;;;;5050013;28;20049;-71
2022/06/21 11:24:58;;;;;;;5.15;1.88;;;22.70;82.30;;;;;;5040597;28;20061;-69
2022/06/21 11:27:32;;;;;;;5.15;1.65;;;23.20;81.40;;;;;;5051368;28;20497;-69
2022/06/21 11:30:17;;;;;;;4.68;1.67;;;23.80;79.40;;;;;;5050342;28;20044;-69
2022/06/21 11:32:53;;;;;;;2.60;1.60;;;23.90;78.60;;;;;;5022672;28;20041;-70
2022/06/21 11:35:34;;;;;;;2.50;1.23;;;24.00;73.40;;;;;;5049904;28;20421;-69
2022/06/21 11:38:35;;;;;;;6.40;2.20;;;24.10;75.70;;;;;;5050710;28;20090;-71
2022/06/21 11:42:04;;;;;;;4.47;1.60;;;24.50;70.60;;;;;;5020779;28;20041;-70
2022/06/21 11:44:16;;;;;;;4.63;1.40;;;24.70;69.70;;;;;;5041295;28;20385;-72
2022/06/21 11:46:50;;;;;;;4.13;1.45;;;24.60;67.20;;;;;;5050497;28;20432;-68
2022/06/21 11:49:16;;;;;;;3.88;1.50;;;24.70;71.10;;;;;;5033640;28;20045;-70
2022/06/21 11:52:03;;;;;;;3.08;1.38;;;24.00;70.80;;;;;;5049856;28;20124;-69
2022/06/21 11:54:59;;;;;;;3.83;1.20;;;23.80;67.40;;;;;;5034033;28;20485;-69
2022/06/21 11:57:44;;;;;;;5.05;1.40;;;23.70;67.40;;;;;;5047434;28;20060;-69
2022/06/21 12:00:27;;;;;;;2.40;1.10;;;23.60;68.60;;;;;;5023275;28;20046;-69
2022/06/21 12:02:58;;;;;;;3.47;1.35;;;23.90;69.10;;;;;;5054439;28;20052;-69
2022/06/21 12:05:33;;;;;;;5.38;1.42;;;24.00;67.90;;;;;;5053939;28;20041;-70
2022/06/21 12:08:23;;;;;;;4.07;1.40;;;23.80;73.10;;;;;;5070295;28;20059;-71
2022/06/21 12:11:02;;;;;;;2.55;1.30;;;23.80;69.10;;;;;;5067670;28;20041;-70
2022/06/21 12:13:36;;;;;;;2.90;1.20;;;23.90;70.40;;;;;;5044239;28;20496;-70
2022/06/21 12:16:25;;;;;;;3.00;1.20;;;24.10;67.90;;;;;;5073298;28;20051;-69
2022/06/21 12:19:01;;;;;;;3.78;1.40;;;24.80;63.80;;;;;;5074226;28;20072;-70
2022/06/21 12:21:30;;;;;;;4.72;1.40;;;24.50;62.80;;;;;;5073591;28;20049;-69
2022/06/21 12:24:02;;;;;;;2.42;1.20;;;24.50;68.50;;;;;;5074494;28;20044;-69
2022/06/21 12:26:30;;;;;;;2.67;1.42;;;24.70;67.60;;;;;;5074213;28;20050;-70
2022/06/21 12:28:58;;;;;;;3.28;1.20;;;24.80;67.20;;;;;;5074008;28;20087;-69
2022/06/21 12:31:29;;;;;;;3.60;1.35;;;24.80;64.90;;;;;;5073848;28;20045;-69
2022/06/21 12:34:05;;;;;;;4.03;1.13;;;25.30;66.20;;;;;;5074161;28;20036;-70
2022/06/21 12:36:38;;;;;;;3.33;1.30;;;25.80;65.70;;;;;;5074012;28;20036;-71
2022/06/21 12:39:33;;;;;;;4.95;1.00;;;25.70;62.30;;;;;;5049409;28;20523;-69
2022/06/21 12:42:27;;;;;;;3.72;1.30;;;26.10;56.90;;;;;;5071601;28;20055;-70
2022/06/21 12:45:10;;;;;;;1.80;1.00;;;26.20;60.80;;;;;;5073725;28;20056;-70
2022/06/21 12:48:13;;;;;;;3.10;1.40;;;26.60;60.60;;;;;;5073462;28;20123;-69
2022/06/21 12:51:10;;;;;;;2.63;1.60;;;26.60;59.40;;;;;;5073053;28;20123;-69
2022/06/21 12:54:08;;;;;;;3.47;1.30;;;26.10;61.80;;;;;;5073292;28;20389;-70
2022/06/21 12:57:05;;;;;;;2.28;1.50;;;25.90;60.20;;;;;;5073506;28;20120;-70
2022/06/21 12:59:46;;;;;;;4.18;1.50;;;26.50;59.40;;;;;;5073365;28;20041;-68
2022/06/21 13:02:12;;;;;;;2.28;1.35;;;27.10;59.20;;;;;;5074145;28;20048;-68
2022/06/21 13:05:07;;;;;;;3.53;1.20;;;27.40;61.90;;;;;;5072685;28;20154;-68
2022/06/21 13:07:48;;;;;;;2.17;1.30;;;27.60;58.90;;;;;;5073023;28;20044;-72
2022/06/21 13:10:42;;;;;;;2.42;1.30;;;27.20;56.20;;;;;;5072489;28;20051;-67
2022/06/21 13:13:41;;;;;;;2.40;1.30;;;27.30;54.40;;;;;;5073069;28;20615;-69
2022/06/21 13:16:22;;;;;;;3.35;1.30;;;27.60;55.70;;;;;;5072709;28;20439;-68
2022/06/21 13:18:54;;;;;;;1.67;1.17;;;28.10;56.00;;;;;;5073873;28;20127;-69
2022/06/21 13:21:46;;;;;;;2.03;1.17;;;28.40;54.70;;;;;;5055386;28;20052;-67
2022/06/21 13:24:55;;;;;;;3.85;1.20;;;28.20;53.20;;;;;;5023468;28;20055;-68
2022/06/21 13:27:21;;;;;;;3.50;1.20;;;27.60;52.50;;;;;;5034082;28;20059;-68
2022/06/21 13:29:59;;;;;;;2.38;1.27;;;27.30;54.80;;;;;;5072680;28;20040;-67
2022/06/21 13:32:30;;;;;;;4.63;1.40;;;27.10;53.80;;;;;;5042939;28;20037;-69
2022/06/21 13:35:30;;;;;;;3.05;1.45;;;27.00;54.10;;;;;;5046689;28;20545;-67
2022/06/21 13:38:34;;;;;;;2.72;1.08;;;26.80;53.40;;;;;;5060485;28;20043;-67
2022/06/21 13:44:24;;;;;;;1.80;1.20;;;26.60;54.80;;;;;;5071441;28;20492;-67
2022/06/21 13:47:05;;;;;;;4.85;1.65;;;26.50;57.00;;;;;;5072388;28;20132;-67
2022/06/21 13:49:35;;;;;;;;;;;26.80;57.00;;;;;;5072763;28;20036;-68
2022/06/21 13:52:10;;;;;;;2.72;1.38;;;26.90;55.80;;;;;;5072169;28;20003;-68
2022/06/21 13:55:00;;;;;;;2.72;1.27;;;27.10;55.20;;;;;;5044376;28;20052;-68
2022/06/21 13:57:59;;;;;;;2.08;1.20;;;27.30;56.10;;;;;;5060386;28;20045;-68
2022/06/21 14:00:36;;;;;;;2.10;1.15;;;27.50;55.70;;;;;;5049298;28;20048;-67
2022/06/21 14:03:28;;;;;;;6.13;1.40;;;27.60;55.10;;;;;;5071936;28;20047;-67
2022/06/21 14:06:04;;;;;;;2.47;1.55;;;28.10;53.70;;;;;;5045182;28;20053;-69
2022/06/21 14:08:38;;;;;;;3.45;1.30;;;29.00;55.10;;;;;;5053834;28;20053;-69
2022/06/21 14:11:15;;;;;;;3.83;1.40;;;29.20;54.60;;;;;;5071679;28;20041;-67
2022/06/21 14:13:53;;;;;;;3.17;1.30;;;30.10;53.10;;;;;;5058354;28;20087;-68
2022/06/21 14:16:29;;;;;;;2.65;1.30;;;30.50;50.90;;;;;;5071867;28;20119;-67
2022/06/21 14:19:03;;;;;;;3.58;1.45;;;30.90;52.20;;;;;;5055133;28;20048;-68
2022/06/21 14:21:44;;;;;;;4.18;1.30;;;31.10;50.90;;;;;;5070753;28;20435;-68
2022/06/21 14:24:47;;;;;;;2.35;1.50;;;30.90;47.90;;;;;;5055290;28;20048;-67
2022/06/21 14:27:27;;;;;;;3.78;1.30;;;30.40;46.90;;;;;;5071451;28;20124;-69
2022/06/21 14:30:24;;;;;;;4.23;1.47;;;30.40;47.70;;;;;;5071102;28;20401;-67
2022/06/21 14:33:16;;;;;;;3.65;1.23;;;30.10;46.90;;;;;;5071421;28;20458;-67
2022/06/21 14:35:52;;;;;;;2.47;1.33;;;30.10;48.20;;;;;;5071427;28;20044;-67
2022/06/21 14:38:56;;;;;;;2.83;1.42;;;30.10;49.40;;;;;;5070560;28;20102;-68
2022/06/21 14:41:42;;;;;;;2.33;1.30;;;29.90;47.90;;;;;;5070734;28;20052;-69
2022/06/21 14:44:21;;;;;;;2.88;1.10;;;30.00;47.50;;;;;;5054716;28;20056;-71
2022/06/21 14:47:10;;;;;;;2.42;1.20;;;30.10;45.90;;;;;;5071399;28;20380;-68
2022/06/21 14:49:46;;;;;;;2.22;1.23;;;29.30;48.20;;;;;;5070600;28;20500;-68
2022/06/21 14:52:59;;;;;;;2.83;1.08;;;28.40;48.80;;;;;;5054401;28;20488;-70
2022/06/21 14:55:59;;;;;;;3.63;1.30;;;28.40;50.50;;;;;;5018205;28;20485;-67
2022/06/21 14:58:38;;;;;;;2.78;1.25;;;28.40;51.40;;;;;;5078800;28;20044;-67
2022/06/21 15:01:19;;;;;;;3.55;1.30;;;28.50;51.40;;;;;;5070053;28;20090;-67
2022/06/21 15:04:06;;;;;;;3.65;1.10;;;28.30;49.60;;;;;;5070531;28;20060;-68
2022/06/21 15:06:33;;;;;;;2.38;1.13;;;28.10;49.70;;;;;;5070803;28;20079;-67
2022/06/21 15:09:14;;;;;;;3.10;1.30;;;27.90;49.60;;;;;;5053896;28;20049;-67
2022/06/21 15:12:00;;;;;;;2.67;1.20;;;27.50;50.70;;;;;;5070124;28;20044;-72
2022/06/21 15:14:40;;;;;;;2.33;1.30;;;27.40;50.70;;;;;;5071129;28;20389;-67
2022/06/21 15:17:18;;;;;;;3.22;1.55;;;27.50;50.60;;;;;;5070712;28;20123;-68
2022/06/21 15:19:54;;;;;;;2.85;1.30;;;27.30;49.60;;;;;;5070001;28;20525;-69
2022/06/21 15:22:40;;;;;;;2.90;1.25;;;27.20;50.40;;;;;;5070647;28;20056;-67
2022/06/21 15:25:12;;;;;;;2.25;1.13;;;27.10;50.60;;;;;;5043188;28;20573;-68
2022/06/21 15:27:44;;;;;;;3.42;1.55;;;26.90;50.50;;;;;;5070517;28;20071;-68
2022/06/21 15:30:15;;;;;;;4.55;1.40;;;26.70;50.20;;;;;;5069538;28;20048;-67
2022/06/21 15:32:51;;;;;;;4.30;1.55;;;26.70;50.00;;;;;;5054112;28;20123;-68
2022/06/21 15:35:17;;;;;;;2.80;1.20;;;26.40;51.20;;;;;;5070536;28;20041;-67
2022/06/21 15:37:51;;;;;;;5.07;1.45;;;26.50;51.70;;;;;;5070828;28;20079;-65
2022/06/21 15:40:26;;;;;;;3.10;1.40;;;26.70;51.50;;;;;;5069901;28;20131;-64
2022/06/21 15:43:24;;;;;;;2.15;1.30;;;26.70;50.00;;;;;;5070370;28;20123;-65
2022/06/21 15:45:54;;;;;;;3.03;2.20;;;26.90;50.70;;;;;;5056559;28;20525;-65
2022/06/21 15:51:53;;;;;;;4.22;2.47;;;27.30;55.30;;;;;;5070651;28;20056;-64
2022/06/21 15:54:50;;;;;;;3.45;2.05;;;27.80;55.80;;;;;;5070346;28;20060;-65
2022/06/21 15:57:19;;;;;;;4.03;2.10;;;28.30;54.50;;;;;;5053012;28;20052;-65
2022/06/21 15:59:56;;;;;;;5.18;1.70;;;28.70;53.60;;;;;;5070194;28;20037;-65
2022/06/21 16:02:41;;;;;;;4.75;1.98;;;28.90;53.50;;;;;;5070010;28;20390;-65
2022/06/21 16:05:15;;;;;;;4.05;2.22;;;29.20;51.50;;;;;;5053704;28;20060;-64
2022/06/21 16:08:15;;;;;;;4.80;1.77;;;29.20;52.10;;;;;;5070271;28;20054;-65
2022/06/21 16:10:43;;;;;;;8.00;3.83;;;28.90;51.50;;;;;;5067095;28;20037;-65
2022/06/21 16:13:31;;;;;;;6.20;3.13;;;28.60;53.90;;;;;;5041336;28;20072;-68
2022/06/21 16:16:01;;;;;;;4.88;3.08;;;28.20;55.40;;;;;;5042798;28;20044;-68
2022/06/21 16:18:41;;;;;;;5.70;3.20;;;27.70;56.40;;;;;;5048218;28;20458;-68
2022/06/21 16:21:31;;;;;;;6.10;2.50;;;27.40;58.60;;;;;;5068722;28;20051;-68
2022/06/21 16:24:38;;;;;;;6.50;3.00;;;27.60;58.20;;;;;;5068844;28;20053;-68